Dara Desgagnes — VCBW — position and weather

sailwx.info

Track history (hours):
 
Tides and Currents Weather Stations Pressure Air Temp Water Temp Dewpoint Dewpoint Depression Visibility Wind Speed Wind Dir Waves Ship Positions

Dara Desgagnes

Last reported at 2018-Feb-21 22:00 UTC. Time now 2018-Feb-21 23:27 UTC.
Position N 49°00' W 066°54'.

Length 124 m; draft 5.4 m.

Type: Ship. MMSI: 316095000.

Wind from 250 at 2 knots

Barometer 1011.1 mb
Air temperature 2.2 ° C
Dewpoint 1.1 ° C

Date/timePositionNaut miles runAvg speedWind from/ knotsBaromVisibWave heightAir tempDewpointWater temp
2018-Feb-21 22:00N 49°00' W 066°54'0 0.0 250 / 21011.1 2.2 1.1
2018-Feb-21 21:00N 49°00' W 066°54'0 0.0 1009.8 -0.0-0.2
2018-Feb-21 20:00N 49°00' W 066°54'0 0.0 1008.3 -1.7-1.8
2018-Feb-21 19:00N 49°00' W 066°54'0 0.0 1008.7 -2.6-2.8
2018-Feb-21 18:00N 49°00' W 066°54'0 0.0 1009.2 -2.4-2.5
2018-Feb-21 17:00N 49°00' W 066°54'0 0.0 1009.6 -2.2-2.3
2018-Feb-21 16:00N 49°00' W 066°54'0 0.0 1010.8 -2.1-2.3
2018-Feb-21 15:00N 49°00' W 066°54'0 0.0 1012.2 -1.9-2.1
2018-Feb-21 14:00N 49°00' W 066°54'0 0.0 1012.8 -2.5-2.8
2018-Feb-21 13:00N 49°00' W 066°54'0 0.0 1013.1 -2.9-3.5
2018-Feb-21 12:00N 49°00' W 066°54'0 0.0 1015.0 -3.0-4.0
2018-Feb-21 11:00N 49°00' W 066°54'0 0.0 1016.1 -3.7-5.1
2018-Feb-21 10:00N 49°00' W 066°54'0 0.0 1018.1 -4.0-5.5
2018-Feb-21 09:00N 49°00' W 066°54'0 0.0 1021.0 -4.4-4.9
2018-Feb-21 08:00N 49°00' W 066°54'0 0.0 1021.3 -4.6-5.6
2018-Feb-21 07:00N 49°00' W 066°54'0 0.0 1024.0 -4.5-5.5
2018-Feb-21 06:00N 49°00' W 066°54'0 0.0 1024.4 -3.8-7.0
2018-Feb-21 05:00N 49°00' W 066°54'0 0.0 1024.8 -4.4-8.1
2018-Feb-21 04:00N 49°00' W 066°54'0 0.0 1026.9 -5.5-6.8
2018-Feb-21 03:00N 49°00' W 066°54'0 0.0 1029.1 -7.5-8.8
2018-Feb-21 02:00N 49°00' W 066°54'0 0.0 1029.9 -6.8-8.1 3.3
2018-Feb-21 01:00N 49°00' W 066°54'0 0.0 1030.0 -2.0-6.9
2018-Feb-21 00:00N 49°00' W 066°54'0 0.0 080 / 11030.7 -4.3-8.8
2018-Feb-20 23:00N 49°00' W 066°54'0 0.0 080 / 21030.6 -6.9-10.4 3.0
2018-Feb-20 22:00N 49°00' W 066°54'6 6.0 060 / 21031.5 -7.0-10.9 3.0
2018-Feb-20 21:00N 49°06' W 066°54'0 0.0 190 / 41031.3 -7.3-11.1 3.1
2018-Feb-20 20:00N 49°06' W 066°54'4 3.9 280 / 41031.7 -7.6-11.4 3.1
2018-Feb-20 19:00N 49°06' W 067°00'4 3.9 310 / 21032.0 -7.8-11.1 3.0
2018-Feb-20 18:00N 49°06' W 066°54'4 3.9 280 / 21031.4 -7.9-11.6 3.1
2018-Feb-20 17:00N 49°06' W 067°00'4 3.9 080 / 61031.8 -8.2-13.0 3.0
2018-Feb-20 16:00N 49°06' W 066°54'0 0.0 030 / 41032.0 -5.7-11.2 2.8
2018-Feb-20 15:00N 49°06' W 066°54'0 0.0 330 / 21031.8 -7.2-12.5 2.6
2018-Feb-20 14:00N 49°06' W 066°54'0 0.0 320 / 11031.7 -6.9-11.3 2.5
2018-Feb-20 13:00N 49°06' W 066°54'0 0.0 320 / 11031.4 -6.8-12.3 2.7
2018-Feb-20 12:00N 49°06' W 066°54'10 9.9 240 / 51029.4 -5.7-10.6 2.8
2018-Feb-20 11:00N 49°00' W 067°06'0 0.0 190 / 31028.2 -4.3-9.4 2.7
2018-Feb-20 10:00N 49°00' W 067°06'4 3.9 320 / 21026.4 -2.8-8.0 3.2
2018-Feb-20 09:00N 49°00' W 067°00'4 3.9 130 / 61025.3 -0.9-3.4 2.9
2018-Feb-20 08:00N 49°00' W 066°54'0 0.0 170 / 11024.5 -0.1-1.7
2018-Feb-20 07:00N 49°00' W 066°54'0 0.0 1023.5 0.2-1.2
2018-Feb-20 06:00N 49°00' W 066°54'0 0.0 1023.2 1.1-1.2
2018-Feb-20 05:00N 49°00' W 066°54'0 0.0 1023.0 1.4-1.4
2018-Feb-20 04:00N 49°00' W 066°54'0 0.0 1022.5 1.2-3.3
2018-Feb-20 03:00N 49°00' W 066°54'0 0.0 1021.2 4.1-5.2
2018-Feb-20 02:00N 49°00' W 066°54'0 0.0 1020.6 3.7-5.1
2018-Feb-20 01:00N 49°00' W 066°54'0 0.0 1020.2 3.4-5.6
2018-Feb-20 00:00N 49°00' W 066°54'0 0.0 1020.1 3.5-6.0
2018-Feb-19 23:00N 49°00' W 066°54'0 0.0 1020.0 3.5-6.6
2018-Feb-19 22:00N 49°00' W 066°54'0 0.0 1020.3 3.1-7.4
2018-Feb-19 21:00N 49°00' W 066°54'0 0.0 1020.3 3.3-7.6
2018-Feb-19 20:00N 49°00' W 066°54'0 0.0 1020.5 3.0-8.0
2018-Feb-19 19:00N 49°00' W 066°54'0 0.0 1020.2 2.1-8.3
2018-Feb-19 18:00N 49°00' W 066°54'0 0.0 1021.6 2.1-7.9
2018-Feb-19 17:00N 49°00' W 066°54'0 0.0 180 / 11022.6 1.2-6.4
2018-Feb-19 16:00N 49°00' W 066°54'0 0.0 180 / 11023.9 -0.1-4.6
2018-Feb-19 15:00N 49°00' W 066°54'0 0.0 180 / 11025.9 -0.9-5.6
2018-Feb-19 14:00N 49°00' W 066°54'0 0.0 1026.9 -0.9-7.8
2018-Feb-19 13:00N 49°00' W 066°54'0 0.0 1028.0 -1.5-8.4
2018-Feb-19 12:00N 49°00' W 066°54'0 0.0 1028.0 -1.7-8.9
2018-Feb-19 11:00N 49°00' W 066°54'0 0.0 1027.5 -2.0-8.9
2018-Feb-19 10:00N 49°00' W 066°54'0 0.0 1027.6 -3.5-8.9
2018-Feb-19 09:00N 49°00' W 066°54'0 0.0 1027.7 -4.8-8.7
2018-Feb-19 08:00N 49°00' W 066°54'0 0.0 1028.5 -5.5-8.7
2018-Feb-19 07:00N 49°00' W 066°54'0 0.0 1028.8 -5.4-9.1
2018-Feb-19 06:00N 49°00' W 066°54'0 0.0 1028.1 -5.6-9.3
2018-Feb-19 05:00N 49°00' W 066°54'0 0.0 1027.7 -4.8-8.5
2018-Feb-19 04:00N 49°00' W 066°54'0 0.0 1027.5 -4.1-7.9
2018-Feb-19 03:00N 49°00' W 066°54'0 0.0 1026.9 -1.9-6.5
2018-Feb-19 02:00N 49°00' W 066°54'0 0.0 1025.5 -1.9-7.0
2018-Feb-19 01:00N 49°00' W 066°54'0 0.0 1024.7 -1.8-6.0
2018-Feb-19 00:00N 49°00' W 066°54'0 0.0 1023.0 -2.0-5.8
2018-Feb-18 23:00N 49°00' W 066°54'0 0.0 1021.1 -1.9-6.2
2018-Feb-18 22:00N 49°00' W 066°54'0 0.0 1020.3 -1.7-6.5
2018-Feb-18 21:00N 49°00' W 066°54'0 0.0 1019.0 -1.6-6.8
2018-Feb-18 20:00N 49°00' W 066°54'0 0.0 1017.9 -2.1-5.3
2018-Feb-18 19:00N 49°00' W 066°54'0 0.0 1017.3 -2.3-5.7
2018-Feb-18 18:00N 49°00' W 066°54'0 0.0 1017.1 -2.3-6.8
2018-Feb-18 17:00N 49°00' W 066°54'0 0.0 1016.7 -2.7-7.3
2018-Feb-18 16:00N 49°00' W 066°54'0 0.0 1016.7 -3.2-7.9
2018-Feb-18 15:00N 49°00' W 066°54'0 0.0 1016.5 -3.7-8.3
2018-Feb-18 14:00N 49°00' W 066°54'0 0.0 1016.1 -5.0-11.3
2018-Feb-18 13:00N 49°00' W 066°54'0 0.0 1015.6 -4.9-10.6
2018-Feb-18 12:00N 49°00' W 066°54'0 0.0 1015.3 -5.1-11.3
2018-Feb-18 11:00N 49°00' W 066°54'0 0.0 1015.0 -5.2-12.7
2018-Feb-18 10:00N 49°00' W 066°54'0 0.0 1015.1 -5.2-14.0
2018-Feb-18 09:00N 49°00' W 066°54'0 0.0 1015.1 -5.3-15.7
2018-Feb-18 08:00N 49°00' W 066°54'0 0.0 1015.1 -5.2-16.5
2018-Feb-18 07:00N 49°00' W 066°54'0 0.0 1015.4 -5.5-16.8
2018-Feb-18 06:00N 49°00' W 066°54'0 0.0 1016.3 -5.8-16.7
2018-Feb-18 05:00N 49°00' W 066°54'0 0.0 1017.4 -6.4-16.9
2018-Feb-18 04:00N 49°00' W 066°54'0 0.0 1018.9 -6.8-16.9
2018-Feb-18 03:00N 49°00' W 066°54'0 0.0 1019.8 -7.3-17.2
2018-Feb-18 02:00N 49°00' W 066°54'0 0.0 1020.8 -7.8-17.7
2018-Feb-18 01:00N 49°00' W 066°54'0 0.0 1021.3 -8.5-18.1
2018-Feb-18 00:00N 49°00' W 066°54'0 0.0 1021.8 -9.4-17.7
2018-Feb-17 23:00N 49°00' W 066°54'0 0.0 1022.9 -11.5-17.9
2018-Feb-17 22:00N 49°00' W 066°54'0 0.0 1023.5 -11.9-18.3
2018-Feb-17 21:00N 49°00' W 066°54'0 0.0 1024.4 -11.3-17.2
2018-Feb-17 20:00N 49°00' W 066°54'0 0.0 1025.0 -11.7-17.2
2018-Feb-17 19:00N 49°00' W 066°54'0 0.0 1025.3 -12.3-17.9
2018-Feb-17 18:00N 49°00' W 066°54'0 0.0 1026.0 -12.6-18.3
2018-Feb-17 17:00N 49°00' W 066°54'0 0.0 1025.8 -13.8-20.5
2018-Feb-17 11:00N 49°00' W 066°54'0 0.0 1022.6 -15.5-21.1
2018-Feb-17 10:00N 49°00' W 066°54'0 0.0 1021.9 -15.6-22.5
2018-Feb-17 09:00N 49°00' W 066°54'0 0.0 1020.2 -15.7-22.6
2018-Feb-17 08:00N 49°00' W 066°54'0 0.0 290 / 11016.0 -15.6-23.4
2018-Feb-17 07:00N 49°00' W 066°54'0 0.0 290 / 11016.5 -14.9-22.3
2018-Feb-17 06:00N 49°00' W 066°54'0 0.0 290 / 11014.1 -14.1-22.6
2018-Feb-17 05:00N 49°00' W 066°54'0 0.0 290 / 11013.3 -13.1-19.6
2018-Feb-17 04:00N 49°00' W 066°54'0 0.0 280 / 11010.9 -12.3-19.1
2018-Feb-17 03:00N 49°00' W 066°54'0 0.0 1009.3 -11.6-18.0
2018-Feb-17 02:00N 49°00' W 066°54'0 0.0 1007.9 -10.3-15.6
2018-Feb-17 00:00N 49°00' W 066°54'0 0.0 1004.3 -7.5-13.4
2018-Feb-16 23:00N 49°00' W 066°54'0 0.0 1003.0 -6.8-12.5
2018-Feb-16 22:00N 49°00' W 066°54'0 0.0 1001.7 -6.3-13.1
2018-Feb-16 21:00N 49°00' W 066°54'0 0.0 1001.3 -5.4-9.1
2018-Feb-16 20:00N 49°00' W 066°54'0 0.0 1000.3 -4.5-7.7
2018-Feb-16 19:00N 49°00' W 066°54'0 0.0 999.3 -4.2-8.0
2018-Feb-16 18:00N 49°00' W 066°54'0 0.0 998.5 -4.1-7.6
2018-Feb-16 17:00N 49°00' W 066°54'0 0.0 998.5 -3.6-6.7
2018-Feb-16 16:00N 49°00' W 066°54'0 0.0 999.2 -3.3-6.4
2018-Feb-16 15:00N 49°00' W 066°54'0 0.0 999.6 -2.7-5.6
2018-Feb-16 14:00N 49°00' W 066°54'0 0.0 999.4 -1.6-4.3
2018-Feb-16 13:00N 49°00' W 066°54'0 0.0 998.5 -1.1-3.8
2018-Feb-16 12:00N 49°00' W 066°54'0 0.0 997.2 -0.9-3.1
2018-Feb-16 11:00N 49°00' W 066°54'0 0.0 995.8 -0.2-2.2
2018-Feb-16 10:00N 49°00' W 066°54'0 0.0 995.1 -0.5-0.6
2018-Feb-16 09:00N 49°00' W 066°54'0 0.0 994.2 -1.0-1.1
2018-Feb-16 08:00N 49°00' W 066°54'0 0.0 993.4 -0.3-0.6
2018-Feb-16 07:00N 49°00' W 066°54'0 0.0 993.4 2.4 0.4
2018-Feb-16 06:00N 49°00' W 066°54'0 0.0 994.0 0.5-0.3
2018-Feb-16 05:00N 49°00' W 066°54'0 0.0 993.9 0.3-0.6
2018-Feb-16 04:00N 49°00' W 066°54'0 0.0 995.1 -1.0-1.3
2018-Feb-16 03:00N 49°00' W 066°54'0 0.0 996.2 -2.1-2.3
2018-Feb-16 02:00N 49°00' W 066°54'0 0.0 997.5 -1.3-1.9
2018-Feb-16 01:00N 49°00' W 066°54'0 0.0 998.7 -0.8-1.5
2018-Feb-16 00:00N 49°00' W 066°54'0 0.0 999.4 -2.0-2.7
2018-Feb-15 23:00N 49°00' W 066°54'0 0.0 1001.0 -1.8-2.9
2018-Feb-15 22:00N 49°00' W 066°54'0 0.0 1002.4 -1.7-3.0
2018-Feb-15 21:00N 49°00' W 066°54'0 0.0 1002.9 -1.8-3.1
2018-Feb-15 20:00N 49°00' W 066°54'0 0.0 1003.2 -2.3-3.0
2018-Feb-15 19:00N 49°00' W 066°54'0 0.0 1004.2 -2.3-3.0
2018-Feb-15 18:00N 49°00' W 066°54'0 0.0 1005.8 -1.9-2.6
2018-Feb-15 17:00N 49°00' W 066°54'0 0.0 1006.9 -0.9-2.3
2018-Feb-15 16:00N 49°00' W 066°54'0 0.0 1008.0 -1.0-3.4
2018-Feb-15 15:00N 49°00' W 066°54'0 0.0 1008.5 1.0-4.3
2018-Feb-15 14:00N 49°00' W 066°54'0 0.0 1008.8 0.1-5.2
2018-Feb-15 13:00N 49°00' W 066°54'0 0.0 1008.9 -0.4-5.2
2018-Feb-15 12:00N 49°00' W 066°54'0 0.0 1008.9 -1.0-5.9
2018-Feb-15 11:00N 49°00' W 066°54'0 0.0 1008.5 -1.3-4.8
2018-Feb-15 10:00N 49°00' W 066°54'0 0.0 1008.5 0.3-6.5
2018-Feb-15 09:00N 49°00' W 066°54'0 0.0 1008.6 0.4-6.1
2018-Feb-15 08:00N 49°00' W 066°54'0 0.0 1008.6 -0.3-5.9
2018-Feb-15 07:00N 49°00' W 066°54'0 0.0 1008.9 -0.1-5.7
2018-Feb-15 06:00N 49°00' W 066°54'0 0.0 1009.3 -1.0-5.5
2018-Feb-15 05:00N 49°00' W 066°54'0 0.0 1008.9 0.6-7.1
2018-Feb-15 04:00N 49°00' W 066°54'0 0.0 1008.9 0.4-6.7
2018-Feb-15 03:00N 49°00' W 066°54'0 0.0 1008.6 -0.0-7.3
2018-Feb-15 02:00N 49°00' W 066°54'0 0.0 1008.7 0.4-6.3
2018-Feb-15 01:00N 49°00' W 066°54'0 0.0 1009.1 -0.4-8.1
2018-Feb-15 00:00N 49°00' W 066°54'0 0.0 1009.3 -1.6-7.5
2018-Feb-14 23:00N 49°00' W 066°54'0 0.0 1009.1 -2.6-6.6
2018-Feb-14 22:00N 49°00' W 066°54'0 0.0 1009.5 -2.3-6.0
2018-Feb-14 21:00N 49°00' W 066°54'0 0.0 1009.1 -2.1-6.3
2018-Feb-14 20:00N 49°00' W 066°54'0 0.0 1009.4 -1.9-7.0
2018-Feb-14 19:00N 49°00' W 066°54'0 0.0 1009.7 -2.3-7.1
2018-Feb-14 18:00N 49°00' W 066°54'0 0.0 1010.5 -2.0-8.3
2018-Feb-14 17:00N 49°00' W 066°54'0 0.0 1010.8 -1.6-9.3
2018-Feb-14 16:00N 49°00' W 066°54'0 0.0 1011.9 -1.3-13.2
2018-Feb-14 15:00N 49°00' W 066°54'0 0.0 1012.3 -1.9-13.5
2018-Feb-14 14:00N 49°00' W 066°54'0 0.0 1012.3 -2.3-14.1
2018-Feb-14 13:00N 49°00' W 066°54'0 0.0 1012.5 -3.7-14.8
2018-Feb-14 12:00N 49°00' W 066°54'0 0.0 1013.6 -4.2-14.2
2018-Feb-14 11:00N 49°00' W 066°54'0 0.0 1013.6 -4.7-14.5
2018-Feb-14 10:00N 49°00' W 066°54'0 0.0 1015.4 -5.2-15.5
2018-Feb-14 09:00N 49°00' W 066°54'0 0.0 1017.2 -6.5-15.6
2018-Feb-14 08:00N 49°00' W 066°54'0 0.0 1019.3 -7.6-16.5
2018-Feb-14 07:00N 49°00' W 066°54'0 0.0 1021.0 -8.2-18.7
2018-Feb-14 06:00N 49°00' W 066°54'0 0.0 1022.2 -8.8-18.7
2018-Feb-14 05:00N 49°00' W 066°54'0 0.0 1023.6 -8.9-19.0
2018-Feb-14 04:00N 49°00' W 066°54'0 0.0 1025.4 -9.7-19.2
2018-Feb-14 03:00N 49°00' W 066°54'0 0.0 1027.3 -10.5-19.5
2018-Feb-14 02:00N 49°00' W 066°54'0 0.0 1029.3 -11.0-20.4
2018-Feb-14 01:00N 49°00' W 066°54'0 0.0 1030.5 -11.3-21.1
2018-Feb-14 00:00N 49°00' W 066°54'0 0.0 1031.6 -12.2-21.5
2018-Feb-13 23:00N 49°00' W 066°54'0 0.0 1033.4 -12.6-21.5
2018-Feb-13 22:00N 49°00' W 066°54'0 0.0 1034.2 -12.2-21.4
2018-Feb-13 21:00N 49°00' W 066°54'0 0.0 1035.1 -11.9-20.9
2018-Feb-13 20:00N 49°00' W 066°54'0 0.0 1035.8 -13.5-18.9
2018-Feb-13 12:00N 49°00' W 066°54'0 0.0 1038.8 -18.8-24.4
2018-Feb-13 11:00N 49°00' W 066°54'0 0.0 1037.3 -18.3-23.7
2018-Feb-13 10:00N 49°00' W 066°54'0 0.0 1035.7 -17.8-23.3
2018-Feb-13 09:00N 49°00' W 066°54'0 0.0 1034.5 -17.1-23.4
2018-Feb-13 08:00N 49°00' W 066°54'0 0.0 270 / 11033.1 -16.2-22.6
2018-Feb-13 07:00N 49°00' W 066°54'0 0.0 280 / 11031.0 -15.5-22.5
2018-Feb-13 06:00N 49°00' W 066°54'0 0.0 270 / 11029.7 -14.2-20.9
2018-Feb-13 05:00N 49°00' W 066°54'0 0.0 280 / 11028.0 -13.0-19.7
2018-Feb-13 04:00N 49°00' W 066°54'0 0.0 270 / 11026.4 -12.1-18.9
2018-Feb-13 03:00N 49°00' W 066°54'0 0.0 270 / 11025.4 -11.3-17.8
2018-Feb-13 02:00N 49°00' W 066°54'0 0.0 270 / 11025.3 -10.7-17.0
2018-Feb-13 01:00N 49°00' W 066°54'0 0.0 270 / 11023.6 -10.1-16.5
2018-Feb-13 00:00N 49°00' W 066°54'0 0.0 270 / 11021.8 -8.9-15.5
2018-Feb-12 23:00N 49°00' W 066°54'0 0.0 280 / 11019.9 -8.1-14.8
2018-Feb-12 22:00N 49°00' W 066°54'0 0.0 270 / 11017.4 -6.2-12.0
2018-Feb-12 21:00N 49°00' W 066°54'0 0.0 1016.9 -5.3-10.8
2018-Feb-12 19:00N 49°00' W 066°54'0 0.0 1014.4 -4.7-10.2
2018-Feb-12 18:00N 49°00' W 066°54'0 0.0 270 / 11013.5 -4.3-10.0
2018-Feb-12 17:00N 49°00' W 066°54'0 0.0 1012.6 -4.1-9.7
2018-Feb-12 16:00N 49°00' W 066°54'0 0.0 250 / 11012.1 -4.0-9.6
2018-Feb-12 15:00N 49°00' W 066°54'0 0.0 240 / 11010.6 -3.9-9.5
2018-Feb-12 14:00N 49°00' W 066°54'0 0.0 240 / 11010.0 -4.0-9.1
2018-Feb-12 13:00N 49°00' W 066°54'0 0.0 250 / 11008.5 -3.5-7.4
2018-Feb-12 12:00N 49°00' W 066°54'0 0.0 240 / 11007.1 -2.9-6.0
2018-Feb-12 11:00N 49°00' W 066°54'0 0.0 240 / 11005.1 -1.9-4.0
2018-Feb-12 10:00N 49°00' W 066°54'0 0.0 1003.8 -4.7-5.6
2018-Feb-12 09:00N 49°00' W 066°54'0 0.0 1003.5 -5.2-5.9
2018-Feb-12 08:00N 49°00' W 066°54'0 0.0 1003.5 -5.5-6.3
2018-Feb-12 07:00N 49°00' W 066°54'0 0.0 1004.1 -6.0-6.8
2018-Feb-12 06:00N 49°00' W 066°54'0 0.0 1004.9 -5.9-7.1
2018-Feb-12 05:00N 49°00' W 066°54'0 0.0 1006.2 -5.4-9.3
2018-Feb-12 04:00N 49°00' W 066°54'0 0.0 1008.7 -5.4-6.9
2018-Feb-12 03:00N 49°00' W 066°54'0 0.0 1010.9 -7.8-9.2
2018-Feb-12 02:00N 49°00' W 066°54'0 0.0 1014.0 -7.9-9.8
2018-Feb-12 01:00N 49°00' W 066°54'   1016.8 -9.0-11.4
Track history (hours):
 
Tides and Currents Weather Stations Pressure Air Temp Water Temp Dewpoint Dewpoint Depression Visibility Wind Speed Wind Dir Waves Ship Positions

Dara Desgagnes

Last reported at 2018-Feb-21 22:00 UTC. Time now 2018-Feb-21 23:27 UTC.
Position N 49°00' W 066°54'.

Length 124 m; draft 5.4 m.

Type: Ship. MMSI: 316095000.

Wind from 250 at 2 knots

Barometer 1011.1 mb
Air temperature 2.2 ° C
Dewpoint 1.1 ° C

Date/timePositionNaut miles runAvg speedWind from/ knotsBaromVisibWave heightAir tempDewpointWater temp
2018-Feb-21 22:00N 49°00' W 066°54'0 0.0 250 / 21011.1 2.2 1.1
2018-Feb-21 21:00N 49°00' W 066°54'0 0.0 1009.8 -0.0-0.2
2018-Feb-21 20:00N 49°00' W 066°54'0 0.0 1008.3 -1.7-1.8
2018-Feb-21 19:00N 49°00' W 066°54'0 0.0 1008.7 -2.6-2.8
2018-Feb-21 18:00N 49°00' W 066°54'0 0.0 1009.2 -2.4-2.5
2018-Feb-21 17:00N 49°00' W 066°54'0 0.0 1009.6 -2.2-2.3
2018-Feb-21 16:00N 49°00' W 066°54'0 0.0 1010.8 -2.1-2.3
2018-Feb-21 15:00N 49°00' W 066°54'0 0.0 1012.2 -1.9-2.1
2018-Feb-21 14:00N 49°00' W 066°54'0 0.0 1012.8 -2.5-2.8
2018-Feb-21 13:00N 49°00' W 066°54'0 0.0 1013.1 -2.9-3.5
2018-Feb-21 12:00N 49°00' W 066°54'0 0.0 1015.0 -3.0-4.0
2018-Feb-21 11:00N 49°00' W 066°54'0 0.0 1016.1 -3.7-5.1
2018-Feb-21 10:00N 49°00' W 066°54'0 0.0 1018.1 -4.0-5.5
2018-Feb-21 09:00N 49°00' W 066°54'0 0.0 1021.0 -4.4-4.9
2018-Feb-21 08:00N 49°00' W 066°54'0 0.0 1021.3 -4.6-5.6
2018-Feb-21 07:00N 49°00' W 066°54'0 0.0 1024.0 -4.5-5.5
2018-Feb-21 06:00N 49°00' W 066°54'0 0.0 1024.4 -3.8-7.0
2018-Feb-21 05:00N 49°00' W 066°54'0 0.0 1024.8 -4.4-8.1
2018-Feb-21 04:00N 49°00' W 066°54'0 0.0 1026.9 -5.5-6.8
2018-Feb-21 03:00N 49°00' W 066°54'0 0.0 1029.1 -7.5-8.8
2018-Feb-21 02:00N 49°00' W 066°54'0 0.0 1029.9 -6.8-8.1 3.3
2018-Feb-21 01:00N 49°00' W 066°54'0 0.0 1030.0 -2.0-6.9
2018-Feb-21 00:00N 49°00' W 066°54'0 0.0 080 / 11030.7 -4.3-8.8
2018-Feb-20 23:00N 49°00' W 066°54'0 0.0 080 / 21030.6 -6.9-10.4 3.0
2018-Feb-20 22:00N 49°00' W 066°54'6 6.0 060 / 21031.5 -7.0-10.9 3.0
2018-Feb-20 21:00N 49°06' W 066°54'0 0.0 190 / 41031.3 -7.3-11.1 3.1
2018-Feb-20 20:00N 49°06' W 066°54'4 3.9 280 / 41031.7 -7.6-11.4 3.1
2018-Feb-20 19:00N 49°06' W 067°00'4 3.9 310 / 21032.0 -7.8-11.1 3.0
2018-Feb-20 18:00N 49°06' W 066°54'4 3.9 280 / 21031.4 -7.9-11.6 3.1
2018-Feb-20 17:00N 49°06' W 067°00'4 3.9 080 / 61031.8 -8.2-13.0 3.0
2018-Feb-20 16:00N 49°06' W 066°54'0 0.0 030 / 41032.0 -5.7-11.2 2.8
2018-Feb-20 15:00N 49°06' W 066°54'0 0.0 330 / 21031.8 -7.2-12.5 2.6
2018-Feb-20 14:00N 49°06' W 066°54'0 0.0 320 / 11031.7 -6.9-11.3 2.5
2018-Feb-20 13:00N 49°06' W 066°54'0 0.0 320 / 11031.4 -6.8-12.3 2.7
2018-Feb-20 12:00N 49°06' W 066°54'10 9.9 240 / 51029.4 -5.7-10.6 2.8
2018-Feb-20 11:00N 49°00' W 067°06'0 0.0 190 / 31028.2 -4.3-9.4 2.7
2018-Feb-20 10:00N 49°00' W 067°06'4 3.9 320 / 21026.4 -2.8-8.0 3.2
2018-Feb-20 09:00N 49°00' W 067°00'4 3.9 130 / 61025.3 -0.9-3.4 2.9
2018-Feb-20 08:00N 49°00' W 066°54'0 0.0 170 / 11024.5 -0.1-1.7
2018-Feb-20 07:00N 49°00' W 066°54'0 0.0 1023.5 0.2-1.2
2018-Feb-20 06:00N 49°00' W 066°54'0 0.0 1023.2 1.1-1.2
2018-Feb-20 05:00N 49°00' W 066°54'0 0.0 1023.0 1.4-1.4
2018-Feb-20 04:00N 49°00' W 066°54'0 0.0 1022.5 1.2-3.3
2018-Feb-20 03:00N 49°00' W 066°54'0 0.0 1021.2 4.1-5.2
2018-Feb-20 02:00N 49°00' W 066°54'0 0.0 1020.6 3.7-5.1
2018-Feb-20 01:00N 49°00' W 066°54'0 0.0 1020.2 3.4-5.6
2018-Feb-20 00:00N 49°00' W 066°54'0 0.0 1020.1 3.5-6.0
2018-Feb-19 23:00N 49°00' W 066°54'0 0.0 1020.0 3.5-6.6
2018-Feb-19 22:00N 49°00' W 066°54'0 0.0 1020.3 3.1-7.4
2018-Feb-19 21:00N 49°00' W 066°54'0 0.0 1020.3 3.3-7.6
2018-Feb-19 20:00N 49°00' W 066°54'0 0.0 1020.5 3.0-8.0
2018-Feb-19 19:00N 49°00' W 066°54'0 0.0 1020.2 2.1-8.3
2018-Feb-19 18:00N 49°00' W 066°54'0 0.0 1021.6 2.1-7.9
2018-Feb-19 17:00N 49°00' W 066°54'0 0.0 180 / 11022.6 1.2-6.4
2018-Feb-19 16:00N 49°00' W 066°54'0 0.0 180 / 11023.9 -0.1-4.6
2018-Feb-19 15:00N 49°00' W 066°54'0 0.0 180 / 11025.9 -0.9-5.6
2018-Feb-19 14:00N 49°00' W 066°54'0 0.0 1026.9 -0.9-7.8
2018-Feb-19 13:00N 49°00' W 066°54'0 0.0 1028.0 -1.5-8.4
2018-Feb-19 12:00N 49°00' W 066°54'0 0.0 1028.0 -1.7-8.9
2018-Feb-19 11:00N 49°00' W 066°54'0 0.0 1027.5 -2.0-8.9
2018-Feb-19 10:00N 49°00' W 066°54'0 0.0 1027.6 -3.5-8.9
2018-Feb-19 09:00N 49°00' W 066°54'0 0.0 1027.7 -4.8-8.7
2018-Feb-19 08:00N 49°00' W 066°54'0 0.0 1028.5 -5.5-8.7
2018-Feb-19 07:00N 49°00' W 066°54'0 0.0 1028.8 -5.4-9.1
2018-Feb-19 06:00N 49°00' W 066°54'0 0.0 1028.1 -5.6-9.3
2018-Feb-19 05:00N 49°00' W 066°54'0 0.0 1027.7 -4.8-8.5
2018-Feb-19 04:00N 49°00' W 066°54'0 0.0 1027.5 -4.1-7.9
2018-Feb-19 03:00N 49°00' W 066°54'0 0.0 1026.9 -1.9-6.5
2018-Feb-19 02:00N 49°00' W 066°54'0 0.0 1025.5 -1.9-7.0
2018-Feb-19 01:00N 49°00' W 066°54'0 0.0 1024.7 -1.8-6.0
2018-Feb-19 00:00N 49°00' W 066°54'0 0.0 1023.0 -2.0-5.8
2018-Feb-18 23:00N 49°00' W 066°54'0 0.0 1021.1 -1.9-6.2
2018-Feb-18 22:00N 49°00' W 066°54'0 0.0 1020.3 -1.7-6.5
2018-Feb-18 21:00N 49°00' W 066°54'0 0.0 1019.0 -1.6-6.8
2018-Feb-18 20:00N 49°00' W 066°54'0 0.0 1017.9 -2.1-5.3
2018-Feb-18 19:00N 49°00' W 066°54'0 0.0 1017.3 -2.3-5.7
2018-Feb-18 18:00N 49°00' W 066°54'0 0.0 1017.1 -2.3-6.8
2018-Feb-18 17:00N 49°00' W 066°54'0 0.0 1016.7 -2.7-7.3
2018-Feb-18 16:00N 49°00' W 066°54'0 0.0 1016.7 -3.2-7.9
2018-Feb-18 15:00N 49°00' W 066°54'0 0.0 1016.5 -3.7-8.3
2018-Feb-18 14:00N 49°00' W 066°54'0 0.0 1016.1 -5.0-11.3
2018-Feb-18 13:00N 49°00' W 066°54'0 0.0 1015.6 -4.9-10.6
2018-Feb-18 12:00N 49°00' W 066°54'0 0.0 1015.3 -5.1-11.3
2018-Feb-18 11:00N 49°00' W 066°54'0 0.0 1015.0 -5.2-12.7
2018-Feb-18 10:00N 49°00' W 066°54'0 0.0 1015.1 -5.2-14.0
2018-Feb-18 09:00N 49°00' W 066°54'0 0.0 1015.1 -5.3-15.7
2018-Feb-18 08:00N 49°00' W 066°54'0 0.0 1015.1 -5.2-16.5
2018-Feb-18 07:00N 49°00' W 066°54'0 0.0 1015.4 -5.5-16.8
2018-Feb-18 06:00N 49°00' W 066°54'0 0.0 1016.3 -5.8-16.7
2018-Feb-18 05:00N 49°00' W 066°54'0 0.0 1017.4 -6.4-16.9
2018-Feb-18 04:00N 49°00' W 066°54'0 0.0 1018.9 -6.8-16.9
2018-Feb-18 03:00N 49°00' W 066°54'0 0.0 1019.8 -7.3-17.2
2018-Feb-18 02:00N 49°00' W 066°54'0 0.0 1020.8 -7.8-17.7
2018-Feb-18 01:00N 49°00' W 066°54'0 0.0 1021.3 -8.5-18.1
2018-Feb-18 00:00N 49°00' W 066°54'0 0.0 1021.8 -9.4-17.7
2018-Feb-17 23:00N 49°00' W 066°54'0 0.0 1022.9 -11.5-17.9
2018-Feb-17 22:00N 49°00' W 066°54'0 0.0 1023.5 -11.9-18.3
2018-Feb-17 21:00N 49°00' W 066°54'0 0.0 1024.4 -11.3-17.2
2018-Feb-17 20:00N 49°00' W 066°54'0 0.0 1025.0 -11.7-17.2
2018-Feb-17 19:00N 49°00' W 066°54'0 0.0 1025.3 -12.3-17.9
2018-Feb-17 18:00N 49°00' W 066°54'0 0.0 1026.0 -12.6-18.3
2018-Feb-17 17:00N 49°00' W 066°54'0 0.0 1025.8 -13.8-20.5
2018-Feb-17 11:00N 49°00' W 066°54'0 0.0 1022.6 -15.5-21.1
2018-Feb-17 10:00N 49°00' W 066°54'0 0.0 1021.9 -15.6-22.5
2018-Feb-17 09:00N 49°00' W 066°54'0 0.0 1020.2 -15.7-22.6
2018-Feb-17 08:00N 49°00' W 066°54'0 0.0 290 / 11016.0 -15.6-23.4
2018-Feb-17 07:00N 49°00' W 066°54'0 0.0 290 / 11016.5 -14.9-22.3
2018-Feb-17 06:00N 49°00' W 066°54'0 0.0 290 / 11014.1 -14.1-22.6
2018-Feb-17 05:00N 49°00' W 066°54'0 0.0 290 / 11013.3 -13.1-19.6
2018-Feb-17 04:00N 49°00' W 066°54'0 0.0 280 / 11010.9 -12.3-19.1
2018-Feb-17 03:00N 49°00' W 066°54'0 0.0 1009.3 -11.6-18.0
2018-Feb-17 02:00N 49°00' W 066°54'0 0.0 1007.9 -10.3-15.6
2018-Feb-17 00:00N 49°00' W 066°54'0 0.0 1004.3 -7.5-13.4
2018-Feb-16 23:00N 49°00' W 066°54'0 0.0 1003.0 -6.8-12.5
2018-Feb-16 22:00N 49°00' W 066°54'0 0.0 1001.7 -6.3-13.1
2018-Feb-16 21:00N 49°00' W 066°54'0 0.0 1001.3 -5.4-9.1
2018-Feb-16 20:00N 49°00' W 066°54'0 0.0 1000.3 -4.5-7.7
2018-Feb-16 19:00N 49°00' W 066°54'0 0.0 999.3 -4.2-8.0
2018-Feb-16 18:00N 49°00' W 066°54'0 0.0 998.5 -4.1-7.6
2018-Feb-16 17:00N 49°00' W 066°54'0 0.0 998.5 -3.6-6.7
2018-Feb-16 16:00N 49°00' W 066°54'0 0.0 999.2 -3.3-6.4
2018-Feb-16 15:00N 49°00' W 066°54'0 0.0 999.6 -2.7-5.6
2018-Feb-16 14:00N 49°00' W 066°54'0 0.0 999.4 -1.6-4.3
2018-Feb-16 13:00N 49°00' W 066°54'0 0.0 998.5 -1.1-3.8
2018-Feb-16 12:00N 49°00' W 066°54'0 0.0 997.2 -0.9-3.1
2018-Feb-16 11:00N 49°00' W 066°54'0 0.0 995.8 -0.2-2.2
2018-Feb-16 10:00N 49°00' W 066°54'0 0.0 995.1 -0.5-0.6
2018-Feb-16 09:00N 49°00' W 066°54'0 0.0 994.2 -1.0-1.1
2018-Feb-16 08:00N 49°00' W 066°54'0 0.0 993.4 -0.3-0.6
2018-Feb-16 07:00N 49°00' W 066°54'0 0.0 993.4 2.4 0.4
2018-Feb-16 06:00N 49°00' W 066°54'0 0.0 994.0 0.5-0.3
2018-Feb-16 05:00N 49°00' W 066°54'0 0.0 993.9 0.3-0.6
2018-Feb-16 04:00N 49°00' W 066°54'0 0.0 995.1 -1.0-1.3
2018-Feb-16 03:00N 49°00' W 066°54'0 0.0 996.2 -2.1-2.3
2018-Feb-16 02:00N 49°00' W 066°54'0 0.0 997.5 -1.3-1.9
2018-Feb-16 01:00N 49°00' W 066°54'0 0.0 998.7 -0.8-1.5
2018-Feb-16 00:00N 49°00' W 066°54'0 0.0 999.4 -2.0-2.7
2018-Feb-15 23:00N 49°00' W 066°54'0 0.0 1001.0 -1.8-2.9
2018-Feb-15 22:00N 49°00' W 066°54'0 0.0 1002.4 -1.7-3.0
2018-Feb-15 21:00N 49°00' W 066°54'0 0.0 1002.9 -1.8-3.1
2018-Feb-15 20:00N 49°00' W 066°54'0 0.0 1003.2 -2.3-3.0
2018-Feb-15 19:00N 49°00' W 066°54'0 0.0 1004.2 -2.3-3.0
2018-Feb-15 18:00N 49°00' W 066°54'0 0.0 1005.8 -1.9-2.6
2018-Feb-15 17:00N 49°00' W 066°54'0 0.0 1006.9 -0.9-2.3
2018-Feb-15 16:00N 49°00' W 066°54'0 0.0 1008.0 -1.0-3.4
2018-Feb-15 15:00N 49°00' W 066°54'0 0.0 1008.5 1.0-4.3
2018-Feb-15 14:00N 49°00' W 066°54'0 0.0 1008.8 0.1-5.2
2018-Feb-15 13:00N 49°00' W 066°54'0 0.0 1008.9 -0.4-5.2
2018-Feb-15 12:00N 49°00' W 066°54'0 0.0 1008.9 -1.0-5.9
2018-Feb-15 11:00N 49°00' W 066°54'0 0.0 1008.5 -1.3-4.8
2018-Feb-15 10:00N 49°00' W 066°54'0 0.0 1008.5 0.3-6.5
2018-Feb-15 09:00N 49°00' W 066°54'0 0.0 1008.6 0.4-6.1
2018-Feb-15 08:00N 49°00' W 066°54'0 0.0 1008.6 -0.3-5.9
2018-Feb-15 07:00N 49°00' W 066°54'0 0.0 1008.9 -0.1-5.7
2018-Feb-15 06:00N 49°00' W 066°54'0 0.0 1009.3 -1.0-5.5
2018-Feb-15 05:00N 49°00' W 066°54'0 0.0 1008.9 0.6-7.1
2018-Feb-15 04:00N 49°00' W 066°54'0 0.0 1008.9 0.4-6.7
2018-Feb-15 03:00N 49°00' W 066°54'0 0.0 1008.6 -0.0-7.3
2018-Feb-15 02:00N 49°00' W 066°54'0 0.0 1008.7 0.4-6.3
2018-Feb-15 01:00N 49°00' W 066°54'0 0.0 1009.1 -0.4-8.1
2018-Feb-15 00:00N 49°00' W 066°54'0 0.0 1009.3 -1.6-7.5
2018-Feb-14 23:00N 49°00' W 066°54'0 0.0 1009.1 -2.6-6.6
2018-Feb-14 22:00N 49°00' W 066°54'0 0.0 1009.5 -2.3-6.0
2018-Feb-14 21:00N 49°00' W 066°54'0 0.0 1009.1 -2.1-6.3
2018-Feb-14 20:00N 49°00' W 066°54'0 0.0 1009.4 -1.9-7.0
2018-Feb-14 19:00N 49°00' W 066°54'0 0.0 1009.7 -2.3-7.1
2018-Feb-14 18:00N 49°00' W 066°54'0 0.0 1010.5 -2.0-8.3
2018-Feb-14 17:00N 49°00' W 066°54'0 0.0 1010.8 -1.6-9.3
2018-Feb-14 16:00N 49°00' W 066°54'0 0.0 1011.9 -1.3-13.2
2018-Feb-14 15:00N 49°00' W 066°54'0 0.0 1012.3 -1.9-13.5
2018-Feb-14 14:00N 49°00' W 066°54'0 0.0 1012.3 -2.3-14.1
2018-Feb-14 13:00N 49°00' W 066°54'0 0.0 1012.5 -3.7-14.8
2018-Feb-14 12:00N 49°00' W 066°54'0 0.0 1013.6 -4.2-14.2
2018-Feb-14 11:00N 49°00' W 066°54'0 0.0 1013.6 -4.7-14.5
2018-Feb-14 10:00N 49°00' W 066°54'0 0.0 1015.4 -5.2-15.5
2018-Feb-14 09:00N 49°00' W 066°54'0 0.0 1017.2 -6.5-15.6
2018-Feb-14 08:00N 49°00' W 066°54'0 0.0 1019.3 -7.6-16.5
2018-Feb-14 07:00N 49°00' W 066°54'0 0.0 1021.0 -8.2-18.7
2018-Feb-14 06:00N 49°00' W 066°54'0 0.0 1022.2 -8.8-18.7
2018-Feb-14 05:00N 49°00' W 066°54'0 0.0 1023.6 -8.9-19.0
2018-Feb-14 04:00N 49°00' W 066°54'0 0.0 1025.4 -9.7-19.2
2018-Feb-14 03:00N 49°00' W 066°54'0 0.0 1027.3 -10.5-19.5
2018-Feb-14 02:00N 49°00' W 066°54'0 0.0 1029.3 -11.0-20.4
2018-Feb-14 01:00N 49°00' W 066°54'0 0.0 1030.5 -11.3-21.1
2018-Feb-14 00:00N 49°00' W 066°54'0 0.0 1031.6 -12.2-21.5
2018-Feb-13 23:00N 49°00' W 066°54'0 0.0 1033.4 -12.6-21.5
2018-Feb-13 22:00N 49°00' W 066°54'0 0.0 1034.2 -12.2-21.4
2018-Feb-13 21:00N 49°00' W 066°54'0 0.0 1035.1 -11.9-20.9
2018-Feb-13 20:00N 49°00' W 066°54'0 0.0 1035.8 -13.5-18.9
2018-Feb-13 12:00N 49°00' W 066°54'0 0.0 1038.8 -18.8-24.4
2018-Feb-13 11:00N 49°00' W 066°54'0 0.0 1037.3 -18.3-23.7
2018-Feb-13 10:00N 49°00' W 066°54'0 0.0 1035.7 -17.8-23.3
2018-Feb-13 09:00N 49°00' W 066°54'0 0.0 1034.5 -17.1-23.4
2018-Feb-13 08:00N 49°00' W 066°54'0 0.0 270 / 11033.1 -16.2-22.6
2018-Feb-13 07:00N 49°00' W 066°54'0 0.0 280 / 11031.0 -15.5-22.5
2018-Feb-13 06:00N 49°00' W 066°54'0 0.0 270 / 11029.7 -14.2-20.9
2018-Feb-13 05:00N 49°00' W 066°54'0 0.0 280 / 11028.0 -13.0-19.7
2018-Feb-13 04:00N 49°00' W 066°54'0 0.0 270 / 11026.4 -12.1-18.9
2018-Feb-13 03:00N 49°00' W 066°54'0 0.0 270 / 11025.4 -11.3-17.8
2018-Feb-13 02:00N 49°00' W 066°54'0 0.0 270 / 11025.3 -10.7-17.0
2018-Feb-13 01:00N 49°00' W 066°54'0 0.0 270 / 11023.6 -10.1-16.5
2018-Feb-13 00:00N 49°00' W 066°54'0 0.0 270 / 11021.8 -8.9-15.5
2018-Feb-12 23:00N 49°00' W 066°54'0 0.0 280 / 11019.9 -8.1-14.8
2018-Feb-12 22:00N 49°00' W 066°54'0 0.0 270 / 11017.4 -6.2-12.0
2018-Feb-12 21:00N 49°00' W 066°54'0 0.0 1016.9 -5.3-10.8
2018-Feb-12 19:00N 49°00' W 066°54'0 0.0 1014.4 -4.7-10.2
2018-Feb-12 18:00N 49°00' W 066°54'0 0.0 270 / 11013.5 -4.3-10.0
2018-Feb-12 17:00N 49°00' W 066°54'0 0.0 1012.6 -4.1-9.7
2018-Feb-12 16:00N 49°00' W 066°54'0 0.0 250 / 11012.1 -4.0-9.6
2018-Feb-12 15:00N 49°00' W 066°54'0 0.0 240 / 11010.6 -3.9-9.5
2018-Feb-12 14:00N 49°00' W 066°54'0 0.0 240 / 11010.0 -4.0-9.1
2018-Feb-12 13:00N 49°00' W 066°54'0 0.0 250 / 11008.5 -3.5-7.4
2018-Feb-12 12:00N 49°00' W 066°54'0 0.0 240 / 11007.1 -2.9-6.0
2018-Feb-12 11:00N 49°00' W 066°54'0 0.0 240 / 11005.1 -1.9-4.0
2018-Feb-12 10:00N 49°00' W 066°54'0 0.0 1003.8 -4.7-5.6
2018-Feb-12 09:00N 49°00' W 066°54'0 0.0 1003.5 -5.2-5.9
2018-Feb-12 08:00N 49°00' W 066°54'0 0.0 1003.5 -5.5-6.3
2018-Feb-12 07:00N 49°00' W 066°54'0 0.0 1004.1 -6.0-6.8
2018-Feb-12 06:00N 49°00' W 066°54'0 0.0 1004.9 -5.9-7.1
2018-Feb-12 05:00N 49°00' W 066°54'0 0.0 1006.2 -5.4-9.3
2018-Feb-12 04:00N 49°00' W 066°54'0 0.0 1008.7 -5.4-6.9
2018-Feb-12 03:00N 49°00' W 066°54'0 0.0 1010.9 -7.8-9.2
2018-Feb-12 02:00N 49°00' W 066°54'0 0.0 1014.0 -7.9-9.8
2018-Feb-12 01:00N 49°00' W 066°54'   1016.8 -9.0-11.4

Dump ship's entire track history